Time;durP1;ratioP1;P1;durP2;ratioP2;P2;SDS_P1;SDS_P2;PMS_P1;PMS_P2;Temp;Humidity;BMP_temperature;BMP_pressure;BME280_temperature;BME280_humidity;BME280_pressure;Samples;Min_cycle;Max_cycle;Signal;HPM_P1;HPM_P2
2021/12/03 00:01:54;;;;;;;;;;;;;;;2.20;84.15;100953.84;5178777;28;20700;-73
2021/12/03 00:04:25;;;;;;;;;;;;;;;2.22;83.53;100951.72;5179346;28;19965;-73
2021/12/03 00:06:56;;;;;;;;;;;;;;;2.21;84.26;100952.78;5178500;28;19957;-73
2021/12/03 00:09:34;;;;;;;;;;;;;;;2.21;83.83;100952.78;5177797;28;19964;-72
2021/12/03 00:12:06;;;;;;;;;;;;;;;2.16;84.08;100951.56;5179823;28;19914;-73
2021/12/03 00:14:37;;;;;;;;;;;;;;;2.15;84.81;100947.19;5180427;28;19921;-73
2021/12/03 00:17:08;;;;;;;;;;;;;;;2.15;84.64;100944.44;5170389;28;19910;-73
2021/12/03 00:19:39;;;;;;;;;;;;;;;2.18;84.14;100943.16;5165619;28;19918;-73
2021/12/03 00:22:10;;;;;;;;;;;;;;;2.23;83.93;100945.19;5179118;28;19977;-72
2021/12/03 00:24:42;;;;;;;;;;;;;;;2.26;84.27;100952.94;5176962;28;19926;-74
2021/12/03 00:27:13;;;;;;;;;;;;;;;2.29;83.66;100950.56;5169050;28;20014;-73
2021/12/03 00:29:44;;;;;;;;;;;;;;;2.32;84.36;100952.00;5180674;28;19910;-73
2021/12/03 00:32:15;;;;;;;;;;;;;;;2.36;84.35;100950.47;5179515;28;19922;-73
2021/12/03 00:34:47;;;;;;;;;;;;;;;2.37;83.76;100955.69;5180475;28;19918;-74
2021/12/03 00:37:18;;;;;;;;;;;;;;;2.37;83.91;100957.59;5180499;28;19914;-73
2021/12/03 00:39:49;;;;;;;;;;;;;;;2.34;84.34;100958.06;5179989;28;19924;-73
2021/12/03 00:42:20;;;;;;;;;;;;;;;2.35;84.00;100955.13;5175839;28;19925;-74
2021/12/03 00:44:55;;;;;;;;;;;;;;;2.32;83.95;100955.56;5173181;28;19941;-74
2021/12/03 00:47:26;;;;;;;;;;;;;;;2.30;84.12;100951.38;5179018;28;19945;-73
2021/12/03 00:49:57;;;;;;;;;;;;;;;2.31;83.89;100955.81;5180281;28;20286;-73
2021/12/03 00:52:28;;;;;;;;;;;;;;;2.28;84.02;100965.31;5179805;28;19914;-73
2021/12/03 00:54:59;;;;;;;;;;;;;;;2.25;84.20;100962.19;5181108;28;20005;-74
2021/12/03 00:57:31;;;;;;;;;;;;;;;2.19;84.54;100963.97;5183717;28;20322;-73
2021/12/03 01:00:04;;;;;;;;;;;;;;;2.19;85.21;100969.44;5174030;28;19945;-74
2021/12/03 01:02:35;;;;;;;;;;;;;;;2.14;84.57;100963.81;5181642;28;19914;-73
2021/12/03 01:05:07;;;;;;;;;;;;;;;2.09;85.03;100967.25;5183686;28;19918;-73
2021/12/03 01:07:38;;;;;;;;;;;;;;;2.10;84.92;100963.47;5182984;28;19914;-73
2021/12/03 01:10:09;;;;;;;;;;;;;;;2.11;85.19;100964.28;5182574;28;19953;-74
2021/12/03 01:12:41;;;;;;;;;;;;;;;2.10;85.71;100973.56;5182645;28;19965;-73
2021/12/03 01:15:17;;;;;;;;;;;;;;;2.09;85.37;100975.44;5183064;28;19922;-73
2021/12/03 01:17:48;;;;;;;;;;;;;;;2.08;85.21;100972.97;5182048;28;19910;-73
2021/12/03 01:20:20;;;;;;;;;;;;;;;2.10;85.95;100976.31;5183233;28;19921;-73
2021/12/03 01:22:52;;;;;;;;;;;;;;;2.10;85.70;100974.41;5182202;28;19965;-73
2021/12/03 01:25:23;;;;;;;;;;;;;;;2.11;85.27;100970.59;5182933;28;20428;-73
2021/12/03 01:27:55;;;;;;;;;;;;;;;2.11;85.06;100984.28;5182533;28;19910;-73
2021/12/03 01:30:27;;;;;;;;;;;;;;;2.07;85.93;100976.75;5182687;28;19949;-73
2021/12/03 01:33:00;;;;;;;;;;;;;;;2.06;85.88;100981.38;5181929;28;19920;-73
2021/12/03 01:35:31;;;;;;;;;;;;;;;2.06;85.59;100978.66;5179148;28;20362;-73
2021/12/03 01:38:03;;;;;;;;;;;;;;;2.01;86.33;100980.41;5182097;28;19926;-74
2021/12/03 01:40:35;;;;;;;;;;;;;;;1.99;86.47;100986.09;5182668;28;19957;-73
2021/12/03 01:43:07;;;;;;;;;;;;;;;1.97;86.59;100985.53;5182286;28;20492;-73
2021/12/03 01:45:39;;;;;;;;;;;;;;;1.96;86.11;100978.34;5181903;28;20452;-72
2021/12/03 01:48:10;;;;;;;;;;;;;;;1.93;86.44;100978.81;5182176;28;19918;-73
2021/12/03 01:50:42;;;;;;;;;;;;;;;1.94;86.28;100977.75;5176320;28;19918;-73
2021/12/03 01:53:15;;;;;;;;;;;;;;;1.94;86.16;100964.06;5177542;28;20023;-73
2021/12/03 01:55:48;;;;;;;;;;;;;;;1.97;86.71;100966.38;5181269;28;19921;-73
2021/12/03 01:58:19;;;;;;;;;;;;;;;1.89;87.30;100962.06;5181569;28;20064;-73
2021/12/03 02:00:53;;;;;;;;;;;;;;;1.88;87.11;100960.34;5181818;28;20001;-73
2021/12/03 02:03:26;;;;;;;;;;;;;;;1.87;87.13;100966.91;5181983;28;19914;-73
2021/12/03 02:05:58;;;;;;;;;;;;;;;1.89;87.92;100966.66;5180415;28;20001;-73
2021/12/03 02:08:30;;;;;;;;;;;;;;;1.88;87.45;100975.94;5171337;28;20001;-73
2021/12/03 02:11:04;;;;;;;;;;;;;;;1.88;87.66;100978.69;5182066;28;19918;-71
2021/12/03 02:13:35;;;;;;;;;;;;;;;1.86;87.77;100976.16;5180937;28;20385;-73
2021/12/03 02:16:07;;;;;;;;;;;;;;;1.90;87.69;100974.66;5179132;28;20057;-73
2021/12/03 02:18:39;;;;;;;;;;;;;;;1.93;88.01;100979.66;5167926;28;19937;-73
2021/12/03 02:21:11;;;;;;;;;;;;;;;1.93;88.34;100989.75;5179881;28;19918;-74
2021/12/03 02:23:43;;;;;;;;;;;;;;;1.90;88.44;100985.59;5181531;28;19993;-73
2021/12/03 02:26:15;;;;;;;;;;;;;;;1.90;88.77;100995.69;5170612;28;19918;-73
2021/12/03 02:28:48;;;;;;;;;;;;;;;1.89;88.88;100977.59;5181535;28;19914;-73
2021/12/03 02:31:20;;;;;;;;;;;;;;;1.84;89.50;100964.63;5181271;28;19918;-73
2021/12/03 02:33:52;;;;;;;;;;;;;;;1.88;89.02;100965.84;5180750;28;19922;-73
2021/12/03 02:36:23;;;;;;;;;;;;;;;1.89;89.26;100973.00;5181777;28;19921;-73
2021/12/03 02:38:54;;;;;;;;;;;;;;;1.91;89.65;100964.53;5181149;28;19917;-73
2021/12/03 02:41:25;;;;;;;;;;;;;;;1.89;89.21;100966.66;5178569;28;19992;-73
2021/12/03 02:43:56;;;;;;;;;;;;;;;1.95;88.97;100966.59;5180930;28;19914;-73
2021/12/03 02:46:28;;;;;;;;;;;;;;;1.90;89.35;100958.25;5181192;28;19961;-73
2021/12/03 02:48:59;;;;;;;;;;;;;;;1.87;89.51;100968.81;5180807;28;20333;-73
2021/12/03 02:51:30;;;;;;;;;;;;;;;1.82;89.68;100958.56;5181204;28;20391;-73
2021/12/03 02:54:01;;;;;;;;;;;;;;;1.77;89.88;100957.56;5180747;28;19992;-73
2021/12/03 02:56:33;;;;;;;;;;;;;;;1.70;90.78;100958.47;5181298;28;19964;-73
2021/12/03 02:59:04;;;;;;;;;;;;;;;1.72;90.60;100961.81;5180089;28;19961;-73
2021/12/03 03:01:35;;;;;;;;;;;;;;;1.74;90.68;100959.69;5180207;28;20000;-73
2021/12/03 03:04:07;;;;;;;;;;;;;;;1.73;90.81;100955.28;5180619;28;20386;-73
2021/12/03 03:06:38;;;;;;;;;;;;;;;1.72;90.95;100950.88;5181501;28;19910;-73
2021/12/03 03:09:11;;;;;;;;;;;;;;;1.74;90.64;100948.75;5180241;28;19925;-73
2021/12/03 03:11:42;;;;;;;;;;;;;;;1.78;91.17;100948.28;5180776;28;19918;-73
2021/12/03 03:14:13;;;;;;;;;;;;;;;1.77;90.92;100955.66;5180984;28;19914;-73
2021/12/03 03:16:45;;;;;;;;;;;;;;;1.79;90.18;100942.63;5178616;28;19956;-73
2021/12/03 03:19:18;;;;;;;;;;;;;;;1.82;90.38;100938.59;5180042;28;19925;-73
2021/12/03 03:21:50;;;;;;;;;;;;;;;1.80;90.79;100927.88;5180703;28;19960;-73
2021/12/03 03:24:21;;;;;;;;;;;;;;;1.84;90.75;100936.44;5180152;28;20351;-73
2021/12/03 03:26:52;;;;;;;;;;;;;;;1.87;90.24;100941.47;5180461;28;19997;-73
2021/12/03 03:29:24;;;;;;;;;;;;;;;1.87;89.95;100938.72;5179319;28;20336;-73
2021/12/03 03:31:55;;;;;;;;;;;;;;;1.88;90.67;100945.84;5179399;28;19957;-73
2021/12/03 03:34:26;;;;;;;;;;;;;;;1.83;90.19;100948.44;5173920;28;20436;-73
2021/12/03 03:36:57;;;;;;;;;;;;;;;1.82;90.76;100946.78;5180378;28;19960;-73
2021/12/03 03:39:28;;;;;;;;;;;;;;;1.80;91.11;100941.53;5180353;28;19953;-73
2021/12/03 03:42:00;;;;;;;;;;;;;;;1.75;91.13;100949.59;5180197;28;19968;-73
2021/12/03 03:44:31;;;;;;;;;;;;;;;1.77;90.71;100957.56;5179270;28;19942;-73
2021/12/03 03:47:04;;;;;;;;;;;;;;;1.78;91.29;100948.28;5179910;28;19933;-73
2021/12/03 03:49:36;;;;;;;;;;;;;;;1.81;90.91;100937.72;5173661;28;19918;-73
2021/12/03 03:52:08;;;;;;;;;;;;;;;1.80;90.83;100947.00;5174845;28;19921;-73
2021/12/03 03:54:39;;;;;;;;;;;;;;;1.81;90.82;100942.38;5179610;28;19960;-73
2021/12/03 03:57:10;;;;;;;;;;;;;;;1.84;91.44;100936.44;5180364;28;19961;-73
2021/12/03 03:59:41;;;;;;;;;;;;;;;1.86;90.84;100945.25;5179214;28;19972;-73
2021/12/03 04:02:13;;;;;;;;;;;;;;;1.89;91.31;100931.97;5179735;28;20370;-73
2021/12/03 04:04:44;;;;;;;;;;;;;;;1.93;91.36;100929.59;5179252;28;19941;-73
2021/12/03 04:07:15;;;;;;;;;;;;;;;1.87;91.28;100925.06;5177435;28;20336;-73
2021/12/03 04:09:46;;;;;;;;;;;;;;;1.84;91.94;100926.34;5179601;28;19953;-73
2021/12/03 04:12:17;;;;;;;;;;;;;;;1.85;91.52;100918.97;5179481;28;19965;-73
2021/12/03 04:14:48;;;;;;;;;;;;;;;1.81;92.29;100920.47;5180039;28;19969;-73
2021/12/03 04:17:20;;;;;;;;;;;;;;;1.81;92.60;100915.84;5170853;28;19917;-73
2021/12/03 04:19:51;;;;;;;;;;;;;;;1.86;91.96;100909.69;5176331;28;19964;-73
2021/12/03 04:22:25;;;;;;;;;;;;;;;1.90;92.03;100913.66;5177907;28;19945;-73
2021/12/03 04:24:56;;;;;;;;;;;;;;;1.89;91.80;100921.03;5176722;28;19918;-73
2021/12/03 04:27:28;;;;;;;;;;;;;;;1.98;91.91;100907.03;5179552;28;19914;-74
2021/12/03 04:29:59;;;;;;;;;;;;;;;1.96;91.46;100919.00;5181395;28;20421;-73
2021/12/03 04:32:30;;;;;;;;;;;;;;;2.00;91.44;100916.66;5183412;28;20008;-73
2021/12/03 04:35:02;;;;;;;;;;;;;;;2.02;91.80;100911.81;5183950;28;19922;-73
2021/12/03 04:37:33;;;;;;;;;;;;;;;2.06;91.35;100907.53;5183516;28;19941;-73
2021/12/03 04:40:06;;;;;;;;;;;;;;;2.07;90.87;100905.63;5181520;28;19918;-73
2021/12/03 04:42:37;;;;;;;;;;;;;;;2.07;90.75;100914.69;5174324;28;19921;-73
2021/12/03 04:45:09;;;;;;;;;;;;;;;2.06;91.65;100934.88;5183944;28;20266;-73
2021/12/03 04:47:41;;;;;;;;;;;;;;;2.06;91.45;100929.41;5182989;28;19918;-73
2021/12/03 04:50:12;;;;;;;;;;;;;;;2.13;90.78;100930.16;5178266;28;19929;-73
2021/12/03 04:52:44;;;;;;;;;;;;;;;2.11;91.15;100920.50;5182162;28;19921;-72
2021/12/03 04:55:15;;;;;;;;;;;;;;;2.09;91.26;100917.16;5182805;28;20024;-72
2021/12/03 04:57:49;;;;;;;;;;;;;;;2.12;90.94;100927.63;5181630;28;19965;-72
2021/12/03 05:00:24;;;;;;;;;;;;;;;2.14;90.79;100920.88;5183141;28;19925;-73
2021/12/03 05:02:56;;;;;;;;;;;;;;;2.15;90.46;100911.63;5182686;28;19914;-73
2021/12/03 05:05:31;;;;;;;;;;;;;;;2.14;90.76;100901.72;5182534;28;20278;-72
2021/12/03 05:08:10;;;;;;;;;;;;;;;2.14;91.15;100898.97;5183118;28;19918;-72
2021/12/03 05:10:42;;;;;;;;;;;;;;;2.15;90.66;100902.56;5181949;28;20495;-73
2021/12/03 05:13:21;;;;;;;;;;;;;;;2.11;90.77;100899.44;5182377;28;19922;-72
2021/12/03 05:15:52;;;;;;;;;;;;;;;2.08;90.79;100894.44;5180203;28;20437;-72
2021/12/03 05:18:25;;;;;;;;;;;;;;;2.04;90.17;100898.72;5183143;28;19914;-72
2021/12/03 05:20:59;;;;;;;;;;;;;;;2.10;90.97;100886.03;5178661;28;19926;-72
2021/12/03 05:23:31;;;;;;;;;;;;;;;2.04;90.54;100886.94;5168399;28;19918;-73
2021/12/03 05:26:03;;;;;;;;;;;;;;;2.05;90.88;100889.44;5182738;28;20009;-73
2021/12/03 05:28:34;;;;;;;;;;;;;;;2.03;90.87;100888.00;5183277;28;19914;-73
2021/12/03 05:31:05;;;;;;;;;;;;;;;2.03;91.01;100885.28;5180532;28;19918;-73
2021/12/03 05:33:38;;;;;;;;;;;;;;;2.02;91.13;100894.53;5173450;28;19918;-73
2021/12/03 05:36:09;;;;;;;;;;;;;;;2.01;90.85;100898.34;5181629;28;19918;-72
2021/12/03 05:38:40;;;;;;;;;;;;;;;2.00;90.99;100902.16;5182358;28;19914;-73
2021/12/03 05:41:13;;;;;;;;;;;;;;;1.99;90.67;100898.56;5182175;28;20294;-73
2021/12/03 05:43:44;;;;;;;;;;;;;;;2.02;90.20;100897.25;5182379;28;20009;-72
2021/12/03 05:46:16;;;;;;;;;;;;;;;2.05;90.45;100896.84;5181781;28;20004;-73
2021/12/03 05:48:47;;;;;;;;;;;;;;;2.01;90.25;100910.13;5174843;28;20394;-72
2021/12/03 05:51:18;;;;;;;;;;;;;;;2.04;90.17;100903.34;5178303;28;19914;-73
2021/12/03 05:53:49;;;;;;;;;;;;;;;2.03;90.32;100912.63;5181914;28;19918;-72
2021/12/03 05:56:20;;;;;;;;;;;;;;;2.03;89.84;100905.25;5182167;28;19953;-73
2021/12/03 05:58:51;;;;;;;;;;;;;;;2.06;90.00;100902.06;5181784;28;19922;-72
2021/12/03 06:01:23;;;;;;;;;;;;;;;2.07;89.92;100906.47;5181969;28;19914;-72
2021/12/03 06:03:54;;;;;;;;;;;;;;;2.06;89.86;100903.97;5181297;28;19918;-72
2021/12/03 06:06:25;;;;;;;;;;;;;;;2.08;88.95;100894.44;5176067;28;20445;-72
2021/12/03 06:08:59;;;;;;;;;;;;;;;2.04;89.00;100897.88;5181589;28;20371;-72
2021/12/03 06:11:31;;;;;;;;;;;;;;;2.05;89.20;100899.56;5180624;28;19921;-72
2021/12/03 06:14:02;;;;;;;;;;;;;;;2.06;88.83;100902.06;5179907;28;19930;-72
2021/12/03 06:16:33;;;;;;;;;;;;;;;2.07;89.09;100892.78;5178555;28;19925;-73
2021/12/03 06:19:04;;;;;;;;;;;;;;;2.10;88.74;100892.31;5181335;28;20282;-72
2021/12/03 06:21:36;;;;;;;;;;;;;;;2.07;88.47;100883.72;5181345;28;20000;-72
2021/12/03 06:24:07;;;;;;;;;;;;;;;2.09;88.66;100887.91;5170894;28;19959;-72
2021/12/03 06:26:38;;;;;;;;;;;;;;;2.15;87.97;100891.63;5181184;28;19993;-72
2021/12/03 06:29:09;;;;;;;;;;;;;;;2.20;87.49;100890.91;5181328;28;19914;-73
2021/12/03 06:31:41;;;;;;;;;;;;;;;2.20;87.78;100885.44;5180692;28;19918;-73
2021/12/03 06:34:12;;;;;;;;;;;;;;;2.17;86.44;100881.25;5179592;28;20388;-73
2021/12/03 06:36:43;;;;;;;;;;;;;;;2.11;86.02;100883.03;5180823;28;19918;-72
2021/12/03 06:39:14;;;;;;;;;;;;;;;2.06;85.84;100882.91;5177832;28;19914;-72
2021/12/03 06:41:46;;;;;;;;;;;;;;;2.10;86.17;100883.28;5179771;28;19918;-73
2021/12/03 06:44:17;;;;;;;;;;;;;;;2.08;85.61;100875.31;5181495;28;20001;-73
2021/12/03 06:46:49;;;;;;;;;;;;;;;2.12;85.81;100881.13;5178857;28;19918;-73
2021/12/03 06:49:20;;;;;;;;;;;;;;;2.13;85.84;100886.38;5180786;28;20289;-72
2021/12/03 06:51:57;;;;;;;;;;;;;;;2.12;85.24;100882.00;5180198;28;19920;-73
2021/12/03 06:54:31;;;;;;;;;;;;;;;2.15;85.76;100884.25;5179614;28;19925;-73
2021/12/03 06:57:04;;;;;;;;;;;;;;;2.15;85.43;100881.50;5170368;28;20442;-72
2021/12/03 06:59:37;;;;;;;;;;;;;;;2.16;85.01;100890.56;5180818;28;19914;-72
2021/12/03 07:02:08;;;;;;;;;;;;;;;2.16;85.10;100894.13;5180355;28;20353;-72
2021/12/03 07:04:40;;;;;;;;;;;;;;;2.15;84.54;100897.09;5180148;28;19925;-72
2021/12/03 07:07:12;;;;;;;;;;;;;;;2.15;84.50;100894.38;5181012;28;20001;-73
2021/12/03 07:09:43;;;;;;;;;;;;;;;2.12;84.78;100889.34;5180443;28;20017;-73
2021/12/03 07:12:15;;;;;;;;;;;;;;;2.08;84.05;100885.41;5180390;28;19914;-73
2021/12/03 07:14:46;;;;;;;;;;;;;;;2.04;84.72;100879.56;5178597;28;19965;-73
2021/12/03 07:17:18;;;;;;;;;;;;;;;2.03;84.27;100886.09;5180749;28;19941;-73
2021/12/03 07:19:49;;;;;;;;;;;;;;;2.05;84.46;100883.16;5180813;28;20009;-73
2021/12/03 07:22:20;;;;;;;;;;;;;;;2.04;84.59;100876.00;5180432;28;19953;-73
2021/12/03 07:24:51;;;;;;;;;;;;;;;2.05;84.41;100862.09;5180612;28;19914;-73
2021/12/03 07:27:23;;;;;;;;;;;;;;;2.06;84.04;100851.97;5180386;28;19925;-73
2021/12/03 07:29:54;;;;;;;;;;;;;;;2.11;84.62;100850.19;5179598;28;19941;-73
2021/12/03 07:32:27;;;;;;;;;;;;;;;2.14;83.76;100849.72;5169647;28;20325;-73
2021/12/03 07:34:58;;;;;;;;;;;;;;;2.14;83.49;100857.94;5180003;28;19918;-72
2021/12/03 07:37:30;;;;;;;;;;;;;;;2.13;83.94;100856.28;5180364;28;19914;-73
2021/12/03 07:40:05;;;;;;;;;;;;;;;2.14;83.87;100857.94;5180275;28;19967;-71
2021/12/03 07:42:36;;;;;;;;;;;;;;;2.14;83.91;100870.78;5180104;28;19914;-71
2021/12/03 07:45:09;;;;;;;;;;;;;;;2.08;83.64;100867.09;5179698;28;19925;-72
2021/12/03 07:47:40;;;;;;;;;;;;;;;2.07;84.02;100870.91;5173715;28;20009;-73
2021/12/03 07:50:12;;;;;;;;;;;;;;;2.08;84.42;100866.25;5176078;28;20001;-72
2021/12/03 07:52:43;;;;;;;;;;;;;;;2.10;83.97;100858.66;5180453;28;19914;-73
2021/12/03 07:55:14;;;;;;;;;;;;;;;2.07;84.09;100865.44;5180179;28;19921;-73
2021/12/03 07:57:46;;;;;;;;;;;;;;;2.10;84.71;100859.50;5179961;28;19918;-73
2021/12/03 08:00:17;;;;;;;;;;;;;;;2.13;84.68;100849.97;5178202;28;19918;-73
2021/12/03 08:02:48;;;;;;;;;;;;;;;2.19;85.16;100868.19;5180246;28;19918;-76
2021/12/03 08:05:19;;;;;;;;;;;;;;;2.29;87.08;100860.25;5178556;28;19941;-73
2021/12/03 08:07:51;;;;;;;;;;;;;;;2.39;85.04;100851.47;5165527;28;20001;-75
2021/12/03 08:10:22;;;;;;;;;;;;;;;2.47;84.23;100858.50;5177751;28;19976;-76
2021/12/03 08:12:53;;;;;;;;;;;;;;;2.45;83.88;100858.72;5188516;28;20030;-74
2021/12/03 08:15:24;;;;;;;;;;;;;;;2.46;83.67;100859.59;5172691;28;19925;-74
2021/12/03 08:17:56;;;;;;;;;;;;;;;2.49;83.46;100854.47;5184154;28;20283;-75
2021/12/03 08:20:27;;;;;;;;;;;;;;;2.51;83.70;100852.31;5184957;28;19917;-75
2021/12/03 08:22:59;;;;;;;;;;;;;;;2.55;83.69;100845.28;5173789;28;19935;-76
2021/12/03 08:25:31;;;;;;;;;;;;;;;2.61;83.92;100849.84;5184293;28;19921;-75
2021/12/03 08:28:02;;;;;;;;;;;;;;;2.67;83.75;100852.69;5184552;28;20332;-76
2021/12/03 08:30:33;;;;;;;;;;;;;;;2.71;83.22;100854.72;5183927;28;19918;-76
2021/12/03 08:33:04;;;;;;;;;;;;;;;2.65;82.97;100850.19;5183998;28;19914;-75
2021/12/03 08:35:36;;;;;;;;;;;;;;;2.67;83.56;100852.69;5183642;28;20000;-72
2021/12/03 08:38:07;;;;;;;;;;;;;;;2.73;83.73;100869.00;5181660;28;19922;-71
2021/12/03 08:40:38;;;;;;;;;;;;;;;2.76;83.24;100854.00;5174286;28;19997;-72
2021/12/03 08:43:10;;;;;;;;;;;;;;;2.74;82.32;100858.91;5181360;28;19918;-72
2021/12/03 08:45:41;;;;;;;;;;;;;;;2.69;82.57;100856.03;5182705;28;19914;-71
2021/12/03 08:48:12;;;;;;;;;;;;;;;2.64;83.05;100862.22;5183730;28;19926;-77
2021/12/03 08:50:51;;;;;;;;;;;;;;;2.61;82.69;100849.00;5184417;28;19914;-78
2021/12/03 08:56:12;;;;;;;;;;;;;;;2.66;83.22;100842.78;5172489;28;19918;-77
2021/12/03 08:58:43;;;;;;;;;;;;;;;2.64;83.59;100839.47;5184212;28;20009;-75
2021/12/03 09:01:15;;;;;;;;;;;;;;;2.68;83.44;100835.19;5183734;28;19918;-76
2021/12/03 09:03:46;;;;;;;;;;;;;;;2.70;83.66;100836.59;5182921;28;19937;-75
2021/12/03 09:06:18;;;;;;;;;;;;;;;2.78;83.66;100829.94;5183411;28;19914;-77
2021/12/03 09:08:50;;;;;;;;;;;;;;;2.78;82.85;100835.41;5182095;28;20388;-78
2021/12/03 09:11:23;;;;;;;;;;;;;;;2.83;83.22;100841.84;5183061;28;19917;-80
2021/12/03 09:13:55;;;;;;;;;;;;;;;2.87;83.75;100835.91;5181350;28;19914;-79
2021/12/03 09:16:26;;;;;;;;;;;;;;;2.88;83.47;100841.13;5181951;28;20288;-76
2021/12/03 09:18:59;;;;;;;;;;;;;;;2.90;83.40;100840.91;5182963;28;20366;-76
2021/12/03 09:21:33;;;;;;;;;;;;;;;2.91;83.36;100842.56;5182843;28;20337;-76
2021/12/03 09:26:41;;;;;;;;;;;;;;;2.91;83.93;100829.69;5182642;28;20294;-76
2021/12/03 09:29:14;;;;;;;;;;;;;;;2.96;83.57;100821.59;5178726;28;19929;-75
2021/12/03 09:31:47;;;;;;;;;;;;;;;2.99;83.99;100818.41;5174545;28;19914;-76
2021/12/03 09:34:20;;;;;;;;;;;;;;;3.04;83.52;100820.38;5181327;28;19930;-74
2021/12/03 09:36:52;;;;;;;;;;;;;;;3.06;83.59;100823.72;5181310;28;19913;-74
2021/12/03 09:39:24;;;;;;;;;;;;;;;3.09;83.74;100830.63;5181822;28;19914;-74
2021/12/03 09:41:58;;;;;;;;;;;;;;;3.07;84.03;100824.56;5182640;28;19916;-73
2021/12/03 09:44:31;;;;;;;;;;;;;;;3.11;84.38;100815.63;5182102;28;19924;-75
2021/12/03 09:47:02;;;;;;;;;;;;;;;3.14;84.00;100817.88;5181734;28;19961;-74
2021/12/03 09:49:34;;;;;;;;;;;;;;;3.08;85.15;100815.28;5181623;28;19918;-73
2021/12/03 09:52:20;;;;;;;;;;;;;;;3.03;84.29;100810.50;5173835;28;19965;-77
2021/12/03 09:55:14;;;;;;;;;;;;;;;3.05;84.76;100800.97;5181921;28;20359;-76
2021/12/03 09:58:02;;;;;;;;;;;;;;;3.05;84.79;100790.03;5180548;28;19914;-76
2021/12/03 10:00:38;;;;;;;;;;;;;;;3.00;84.45;100784.44;5182034;28;20318;-76
2021/12/03 10:11:49;;;;;;;;;;;;;;;3.15;85.15;100783.09;5181854;28;19914;-75
2021/12/03 10:23:26;;;;;;;;;;;;;;;3.16;85.10;100760.09;5174366;28;19918;-77
2021/12/03 10:26:29;;;;;;;;;;;;;;;3.20;85.27;100762.09;5181424;28;19977;-80
2021/12/03 10:31:48;;;;;;;;;;;;;;;3.20;84.73;100731.97;5183954;28;19921;-87
2021/12/03 10:39:36;;;;;;;;;;;;;;;3.23;84.49;100722.41;5171617;28;19910;-77
2021/12/03 11:53:04;;;;;;;;;;;;;;;4.11;80.38;100588.41;5267059;28;19921;-80
2021/12/03 11:58:49;;;;;;;;;;;;;;;4.09;79.54;100574.94;5305190;28;19920;-81
2021/12/03 12:33:00;;;;;;;;;;;;;;;4.30;78.55;100501.91;5265046;28;19983;-77
2021/12/03 12:35:59;;;;;;;;;;;;;;;4.33;81.02;100493.16;5265461;28;20399;-85
2021/12/03 13:01:43;;;;;;;;;;;;;;;4.32;76.90;100469.56;5256032;28;20271;-77
2021/12/03 13:05:18;;;;;;;;;;;;;;;4.33;76.36;100462.97;5251688;28;19991;-76
2021/12/03 14:06:11;;;;;;;;;;;;;;;4.25;79.94;100392.06;5259956;28;19965;-73
2021/12/03 14:11:57;;;;;;;;;;;;;;;4.16;81.11;100385.34;5243769;28;19968;-73
2021/12/03 14:21:00;;;;;;;;;;;;;;;4.16;82.26;100379.03;5240180;28;19917;-73
2021/12/03 14:25:00;;;;;;;;;;;;;;;4.20;82.69;100381.03;5239584;28;19917;-72
2021/12/03 14:40:30;;;;;;;;;;;;;;;4.26;84.49;100376.41;5262944;28;19916;-74
2021/12/03 14:57:11;;;;;;;;;;;;;;;4.22;85.12;100381.59;5245673;28;19925;-74
2021/12/03 14:59:53;;;;;;;;;;;;;;;4.27;85.45;100378.06;5259696;28;19917;-75
2021/12/03 15:02:44;;;;;;;;;;;;;;;4.28;84.83;100374.22;5262370;28;19917;-74
2021/12/03 15:05:28;;;;;;;;;;;;;;;4.25;85.27;100381.06;5262101;28;19970;-71
2021/12/03 15:08:01;;;;;;;;;;;;;;;4.26;85.46;100377.22;5264224;28;19917;-71
2021/12/03 15:19:05;;;;;;;;;;;;;;;4.29;85.19;100381.38;5261847;28;19917;-70
2021/12/03 15:55:30;;;;;;;;;;;;;;;4.31;89.58;100347.06;5254570;28;20007;-74
2021/12/03 15:58:09;;;;;;;;;;;;;;;4.32;90.15;100346.00;5244359;28;20012;-75
2021/12/03 16:03:53;;;;;;;;;;;;;;;4.31;90.19;100335.28;5244524;28;19976;-75
2021/12/03 16:06:29;;;;;;;;;;;;;;;4.29;90.64;100326.47;5248266;28;19917;-75
2021/12/03 16:09:08;;;;;;;;;;;;;;;4.26;91.67;100325.06;5256481;28;19936;-75
2021/12/03 16:11:49;;;;;;;;;;;;;;;4.28;91.33;100325.66;5252922;28;19921;-74
2021/12/03 16:14:41;;;;;;;;;;;;;;;4.30;91.52;100326.22;5265917;28;19974;-74
2021/12/03 16:17:38;;;;;;;;;;;;;;;4.32;90.90;100321.31;5256958;28;19921;-74
2021/12/03 16:23:09;;;;;;;;;;;;;;;4.29;91.22;100307.25;5265376;28;20011;-74
2021/12/03 16:46:03;;;;;;;;;;;;;;;4.48;92.39;100291.22;5244152;28;19921;-77
2021/12/03 16:49:26;;;;;;;;;;;;;;;4.30;91.77;100289.72;5247413;28;19931;-79
2021/12/03 16:54:05;;;;;;;;;;;;;;;4.30;92.72;100287.78;5260694;28;19921;-79
2021/12/03 16:56:44;;;;;;;;;;;;;;;4.22;92.54;100282.78;5272755;28;19952;-77
2021/12/03 16:59:15;;;;;;;;;;;;;;;4.23;92.64;100283.59;5256262;28;19944;-76
2021/12/03 17:10:10;;;;;;;;;;;;;;;4.19;93.20;100294.25;5246351;28;19972;-75
2021/12/03 17:13:01;;;;;;;;;;;;;;;4.19;92.89;100293.44;5259889;28;19917;-80
2021/12/03 17:19:09;;;;;;;;;;;;;;;4.17;93.82;100290.13;5244238;28;19917;-78
2021/12/03 17:22:01;;;;;;;;;;;;;;;4.14;94.00;100280.50;5243392;28;19924;-78
2021/12/03 17:44:31;;;;;;;;;;;;;;;4.16;93.75;100239.88;5264151;28;19919;-79
2021/12/03 17:57:25;;;;;;;;;;;;;;;4.31;93.15;100192.53;5250524;28;19965;-74
2021/12/03 17:59:57;;;;;;;;;;;;;;;4.33;92.82;100185.69;5251185;28;19940;-75
2021/12/03 18:08:06;;;;;;;;;;;;;;;4.32;92.95;100183.19;5242439;28;19921;-73
2021/12/03 18:11:08;;;;;;;;;;;;;;;4.32;92.65;100175.81;5256836;28;19924;-77
2021/12/03 18:16:58;;;;;;;;;;;;;;;4.31;92.12;100165.88;5258516;28;20365;-74
2021/12/03 18:45:07;;;;;;;;;;;;;;;4.42;91.55;100155.78;5262317;28;20368;-74
2021/12/03 18:50:49;;;;;;;;;;;;;;;4.47;91.81;100168.72;5251471;28;19921;-80
2021/12/03 18:53:35;;;;;;;;;;;;;;;4.47;91.34;100160.50;5242172;28;19924;-76
2021/12/03 18:56:15;;;;;;;;;;;;;;;4.45;91.29;100168.16;5260864;28;19917;-71
2021/12/03 18:58:51;;;;;;;;;;;;;;;4.43;91.35;100159.38;5260382;28;19959;-71
2021/12/03 19:01:28;;;;;;;;;;;;;;;4.46;91.84;100167.91;5253745;28;20352;-72
2021/12/03 19:04:11;;;;;;;;;;;;;;;4.52;91.87;100171.50;5242109;28;19921;-71
2021/12/03 19:06:48;;;;;;;;;;;;;;;4.57;91.83;100168.78;5240693;28;19925;-74
2021/12/03 19:09:23;;;;;;;;;;;;;;;4.57;91.17;100166.88;5256760;28;19966;-74
2021/12/03 19:14:29;;;;;;;;;;;;;;;4.60;91.36;100156.44;5263550;28;19924;-74
2021/12/03 19:17:00;;;;;;;;;;;;;;;4.61;91.53;100164.44;5249961;28;19921;-73
2021/12/03 19:19:36;;;;;;;;;;;;;;;4.61;91.29;100163.59;5248714;28;19928;-74
2021/12/03 19:22:07;;;;;;;;;;;;;;;4.41;91.64;100153.34;5256377;28;19925;-73
2021/12/03 19:24:38;;;;;;;;;;;;;;;4.49;92.33;100139.91;5259672;28;19986;-75
2021/12/03 19:27:11;;;;;;;;;;;;;;;4.52;92.01;100136.63;5260198;28;19927;-76
2021/12/03 19:29:43;;;;;;;;;;;;;;;4.55;91.69;100138.00;5247958;28;20012;-75
2021/12/03 19:32:14;;;;;;;;;;;;;;;4.55;91.99;100132.53;5247317;28;19968;-75
2021/12/03 19:34:46;;;;;;;;;;;;;;;4.55;91.27;100132.53;5251414;28;19983;-75
2021/12/03 19:37:17;;;;;;;;;;;;;;;4.55;91.36;100138.00;5245411;28;19920;-74
2021/12/03 19:39:48;;;;;;;;;;;;;;;4.57;90.99;100135.84;5259294;28;19921;-74
2021/12/03 19:42:23;;;;;;;;;;;;;;;4.54;90.76;100142.69;5254484;28;20028;-75
2021/12/03 19:45:01;;;;;;;;;;;;;;;4.55;90.77;100132.53;5258077;28;20383;-74
2021/12/03 19:47:45;;;;;;;;;;;;;;;4.52;90.78;100127.56;5258176;28;19928;-75
2021/12/03 19:50:22;;;;;;;;;;;;;;;4.51;90.88;100125.94;5247682;28;19932;-75
2021/12/03 19:52:58;;;;;;;;;;;;;;;4.52;90.50;100125.66;5245067;28;19917;-74
2021/12/03 19:55:29;;;;;;;;;;;;;;;4.49;90.38;100117.94;5256648;28;19950;-74
2021/12/03 19:58:00;;;;;;;;;;;;;;;4.52;90.62;100117.41;5246185;28;19972;-74
2021/12/03 20:00:31;;;;;;;;;;;;;;;4.46;90.79;100123.97;5254859;28;19921;-74
2021/12/03 20:03:03;;;;;;;;;;;;;;;4.50;91.00;100124.25;5253411;28;19927;-73
2021/12/03 20:05:34;;;;;;;;;;;;;;;4.50;90.33;100118.75;5265368;28;19917;-75
2021/12/03 20:08:07;;;;;;;;;;;;;;;4.44;91.13;100122.59;5256807;28;20011;-74
2021/12/03 20:10:42;;;;;;;;;;;;;;;4.45;90.92;100118.75;5245880;28;19921;-74